Time;durP1;ratioP1;P1;durP2;ratioP2;P2;SDS_P1;SDS_P2;PMS_P1;PMS_P2;Temp;Humidity;BMP_temperature;BMP_pressure;BME280_temperature;BME280_humidity;BME280_pressure;Samples;Min_cycle;Max_cycle;Signal;HPM_P1;HPM_P2
2022/08/16 00:00:35;;;;;;;;;;;;;;;-142.75;100.00;75568.47;5052478;28;20348;-67
2022/08/16 00:03:00;;;;;;;;;;;;;;;-142.75;100.00;75582.25;5051303;28;20441;-67
2022/08/16 00:05:26;;;;;;;;;;;;;;;-142.75;100.00;75594.06;5078864;22;19924;-66
2022/08/16 00:07:51;;;;;;;;;;;;;;;-142.75;100.00;75586.19;5052472;28;20003;-66
2022/08/16 00:10:18;;;;;;;;;;;;;;;-142.75;100.00;75590.13;5071286;28;19998;-67
2022/08/16 00:12:43;;;;;;;;;;;;;;;-142.75;100.00;75594.06;5072373;28;19938;-66
2022/08/16 00:15:14;;;;;;;;;;;;;;;-142.75;100.00;75594.06;5072328;28;20378;-66
2022/08/16 00:17:40;;;;;;;;;;;;;;;-142.75;100.00;75590.13;5071934;28;19963;-67
2022/08/16 00:20:09;;;;;;;;;;;;;;;-142.75;100.00;75590.13;5072367;28;19912;-66
2022/08/16 00:22:35;;;;;;;;;;;;;;;-142.75;100.00;75601.91;5070682;28;19913;-67
2022/08/16 00:25:00;;;;;;;;;;;;;;;-142.75;100.00;75619.63;5070059;28;19920;-66
2022/08/16 00:27:25;;;;;;;;;;;;;;;-142.75;100.00;75621.59;5071610;28;19954;-66
2022/08/16 00:29:51;;;;;;;;;;;;;;;-142.75;100.00;75639.31;5072072;28;19919;-66
2022/08/16 00:32:16;;;;;;;;;;;;;;;-142.75;100.00;75653.09;5072029;28;19965;-66
2022/08/16 00:34:41;;;;;;;;;;;;;;;-142.75;100.00;75653.09;5072247;28;19916;-66
2022/08/16 00:37:07;;;;;;;;;;;;;;;-142.75;100.00;75649.16;5071787;28;19925;-67
2022/08/16 00:39:32;;;;;;;;;;;;;;;-142.75;100.00;75635.38;5071985;28;20389;-66
2022/08/16 00:41:57;;;;;;;;;;;;;;;-142.75;100.00;75627.50;5072068;28;19912;-66
2022/08/16 00:44:22;;;;;;;;;;;;;;;-142.75;100.00;75623.56;5071830;28;20404;-66
2022/08/16 00:47:00;;;;;;;;;;;;;;;-142.75;100.00;75623.56;5071193;28;19913;-67
2022/08/16 00:49:26;;;;;;;;;;;;;;;-142.75;100.00;75623.56;5071733;28;19920;-67
2022/08/16 00:51:52;;;;;;;;;;;;;;;-142.75;100.00;75623.56;5070708;28;19942;-67
2022/08/16 00:54:18;;;;;;;;;;;;;;;-142.75;100.00;75615.69;5071962;28;20297;-67
2022/08/16 00:56:46;;;;;;;;;;;;;;;-142.75;100.00;75609.78;5071527;28;19916;-66
2022/08/16 00:59:12;;;;;;;;;;;;;;;-142.75;100.00;75599.94;5071895;28;19912;-67
2022/08/16 01:01:38;;;;;;;;;;;;;;;-142.75;100.00;75597.97;5071878;28;19920;-66
2022/08/16 01:04:05;;;;;;;;;;;;;;;-142.75;100.00;75597.97;5071941;28;19916;-67
2022/08/16 01:06:30;;;;;;;;;;;;;;;-142.75;100.00;75594.06;5071676;28;19917;-66
2022/08/16 01:08:56;;;;;;;;;;;;;;;-142.75;100.00;75588.16;5071798;28;19966;-66
2022/08/16 01:11:23;;;;;;;;;;;;;;;-142.75;100.00;75586.19;5070545;28;19919;-66
2022/08/16 01:13:50;;;;;;;;;;;;;;;-142.75;100.00;75584.22;5071819;28;19912;-67
2022/08/16 01:16:19;;;;;;;;;;;;;;;-142.75;100.00;75576.34;5071787;28;20297;-66
2022/08/16 01:19:05;;;;;;;;;;;;;;;-142.75;100.00;75568.47;5071863;28;20332;-67
2022/08/16 01:21:37;;;;;;;;;;;;;;;-142.75;100.00;75566.50;5060778;28;19965;-66
2022/08/16 01:24:09;;;;;;;;;;;;;;;-142.75;100.00;75566.50;5071884;28;19925;-66
2022/08/16 01:26:35;;;;;;;;;;;;;;;-142.75;100.00;75570.44;5071360;28;19913;-66
2022/08/16 01:29:03;;;;;;;;;;;;;;;-142.75;100.00;75570.44;5071660;28;19912;-67
2022/08/16 01:31:28;;;;;;;;;;;;;;;-142.75;100.00;75576.34;5070299;28;19912;-66
2022/08/16 01:33:54;;;;;;;;;;;;;;;-142.75;100.00;75574.38;5071720;28;19919;-66
2022/08/16 01:36:20;;;;;;;;;;;;;;;-142.75;100.00;75580.28;5071457;28;20282;-66
2022/08/16 01:38:46;;;;;;;;;;;;;;;-142.75;100.00;75582.25;5070085;28;19912;-66
2022/08/16 01:41:13;;;;;;;;;;;;;;;-142.75;100.00;75582.25;5073892;28;19913;-66
2022/08/16 01:43:40;;;;;;;;;;;;;;;-142.75;100.00;75590.13;5075113;28;19927;-66
2022/08/16 01:46:07;;;;;;;;;;;;;;;-142.75;100.00;75586.19;5073596;28;19919;-66
2022/08/16 01:48:33;;;;;;;;;;;;;;;-142.75;100.00;75584.22;5074679;28;19943;-67
2022/08/16 01:51:00;;;;;;;;;;;;;;;-142.75;100.00;75594.06;5074931;28;19962;-66
2022/08/16 01:53:26;;;;;;;;;;;;;;;-142.75;100.00;75599.94;5074991;28;19939;-66
2022/08/16 01:55:51;;;;;;;;;;;;;;;-142.75;100.00;75586.19;5074796;28;19921;-66
2022/08/16 01:58:17;;;;;;;;;;;;;;;-142.75;100.00;75584.22;5074738;28;19928;-66
2022/08/16 02:00:43;;;;;;;;;;;;;;;-142.75;100.00;75588.16;5074748;28;20313;-67
2022/08/16 02:03:08;;;;;;;;;;;;;;;-142.75;100.00;75592.09;5074752;28;19913;-66
2022/08/16 02:05:33;;;;;;;;;;;;;;;-142.75;100.00;75601.91;5074494;28;20014;-66
2022/08/16 02:07:59;;;;;;;;;;;;;;;-142.75;100.00;75597.97;5074106;28;19913;-67
2022/08/16 02:10:24;;;;;;;;;;;;;;;-142.75;100.00;75594.06;5073299;28;19973;-66
2022/08/16 02:12:49;;;;;;;;;;;;;;;-142.75;100.00;75586.19;5074482;28;19912;-66
2022/08/16 02:15:15;;;;;;;;;;;;;;;-142.75;100.00;75582.25;5074445;28;20385;-66
2022/08/16 02:17:41;;;;;;;;;;;;;;;-142.75;100.00;75586.19;5074017;28;19912;-66
2022/08/16 02:20:07;;;;;;;;;;;;;;;-142.75;100.00;75574.38;5073074;28;19952;-66
2022/08/16 02:22:33;;;;;;;;;;;;;;;-142.75;100.00;75586.19;5074275;28;19978;-66
2022/08/16 02:24:58;;;;;;;;;;;;;;;-142.75;100.00;75570.44;5074242;28;19912;-67
2022/08/16 02:27:23;;;;;;;;;;;;;;;-142.75;100.00;75586.19;5073910;28;19912;-66
2022/08/16 02:29:48;;;;;;;;;;;;;;;-142.75;100.00;75584.22;5074248;28;19913;-66
2022/08/16 02:32:15;;;;;;;;;;;;;;;-142.75;100.00;75572.41;5074213;28;19928;-66
2022/08/16 02:34:40;;;;;;;;;;;;;;;-142.75;100.00;75568.47;5074075;28;19916;-66
2022/08/16 02:37:05;;;;;;;;;;;;;;;-142.75;100.00;75560.59;5073441;28;19961;-66
2022/08/16 02:39:30;;;;;;;;;;;;;;;-142.75;100.00;75556.66;5072669;28;19919;-66
2022/08/16 02:41:55;;;;;;;;;;;;;;;-142.75;100.00;75564.53;5073912;28;19913;-66
2022/08/16 02:44:22;;;;;;;;;;;;;;;-142.75;100.00;75560.59;5072632;28;20002;-66
2022/08/16 02:46:47;;;;;;;;;;;;;;;-142.75;100.00;75566.50;5073529;28;19917;-67
2022/08/16 02:49:13;;;;;;;;;;;;;;;-142.75;100.00;75576.34;5073860;28;19984;-66
2022/08/16 02:51:39;;;;;;;;;;;;;;;-142.75;100.00;75576.34;5072343;28;19912;-66
2022/08/16 02:54:08;;;;;;;;;;;;;;;-142.75;100.00;75582.25;5073693;28;19923;-66
2022/08/16 02:56:33;;;;;;;;;;;;;;;-142.75;100.00;75586.19;5073381;28;19927;-66
2022/08/16 02:58:59;;;;;;;;;;;;;;;-142.75;100.00;75590.13;5073563;28;19912;-66
2022/08/16 03:01:27;;;;;;;;;;;;;;;-142.75;100.00;75597.97;5073566;28;19912;-66
2022/08/16 03:03:53;;;;;;;;;;;;;;;-142.75;100.00;75601.91;5073514;28;19916;-66
2022/08/16 03:06:19;;;;;;;;;;;;;;;-142.75;100.00;75590.13;5071785;28;19939;-66
2022/08/16 03:08:45;;;;;;;;;;;;;;;-142.75;100.00;75594.06;5073163;28;20270;-66
2022/08/16 03:11:11;;;;;;;;;;;;;;;-142.75;100.00;75594.06;5073359;28;19998;-66
2022/08/16 03:13:37;;;;;;;;;;;;;;;-142.75;100.00;75592.09;5073326;28;19955;-66
2022/08/16 03:16:03;;;;;;;;;;;;;;;-142.75;100.00;75592.09;5073178;28;19967;-66
2022/08/16 03:18:28;;;;;;;;;;;;;;;-142.75;100.00;75597.97;5073057;28;19919;-66
2022/08/16 03:20:55;;;;;;;;;;;;;;;-142.75;100.00;75597.97;5073058;28;20620;-66
2022/08/16 03:23:20;;;;;;;;;;;;;;;-142.75;100.00;75613.72;5073412;28;19916;-67
2022/08/16 03:25:45;;;;;;;;;;;;;;;-142.75;100.00;75605.84;5073323;28;20409;-66
2022/08/16 03:28:10;;;;;;;;;;;;;;;-142.75;100.00;75609.78;5073317;28;20373;-66
2022/08/16 03:30:36;;;;;;;;;;;;;;;-142.75;100.00;75601.91;5073098;28;19919;-66
2022/08/16 03:33:01;;;;;;;;;;;;;;;-142.75;100.00;75592.09;5073016;28;19920;-66
2022/08/16 03:35:28;;;;;;;;;;;;;;;-142.75;100.00;75596.00;5072676;28;19912;-66
2022/08/16 03:37:55;;;;;;;;;;;;;;;-142.75;100.00;75605.84;5072635;28;19965;-66
2022/08/16 03:40:20;;;;;;;;;;;;;;;-142.75;100.00;75603.88;5070910;28;20338;-66
2022/08/16 03:42:46;;;;;;;;;;;;;;;-142.75;100.00;75603.88;5071287;28;19956;-66
2022/08/16 03:45:11;;;;;;;;;;;;;;;-142.75;100.00;75613.72;5072722;28;19920;-66
2022/08/16 03:47:37;;;;;;;;;;;;;;;-142.75;100.00;75613.72;5070980;28;19920;-66
2022/08/16 03:50:05;;;;;;;;;;;;;;;-142.75;100.00;75631.44;5072543;28;19912;-66
2022/08/16 03:52:30;;;;;;;;;;;;;;;-142.75;100.00;75621.59;5072597;28;19912;-66
2022/08/16 03:54:55;;;;;;;;;;;;;;;-142.75;100.00;75633.41;5073472;28;19920;-66
2022/08/16 03:57:20;;;;;;;;;;;;;;;-142.75;100.00;75645.22;5075108;28;20378;-66
2022/08/16 03:59:45;;;;;;;;;;;;;;;-142.75;100.00;75645.22;5073837;28;19916;-66
2022/08/16 04:02:11;;;;;;;;;;;;;;;-142.75;100.00;75651.13;5071998;28;19913;-66
2022/08/16 04:04:36;;;;;;;;;;;;;;;-142.75;100.00;75651.13;5072369;28;20289;-66
2022/08/16 04:07:03;;;;;;;;;;;;;;;-142.75;100.00;75653.09;5072070;28;19916;-66
2022/08/16 04:09:28;;;;;;;;;;;;;;;-142.75;100.00;75653.09;5072462;28;20366;-66
2022/08/16 04:11:54;;;;;;;;;;;;;;;-142.75;100.00;75672.78;5072392;28;19965;-66
2022/08/16 04:14:19;;;;;;;;;;;;;;;-142.75;100.00;75676.69;5072355;28;20294;-66
2022/08/16 04:16:44;;;;;;;;;;;;;;;-142.75;100.00;75664.91;5072389;28;19963;-66
2022/08/16 04:19:09;;;;;;;;;;;;;;;-142.75;100.00;75672.78;5072598;28;19912;-66
2022/08/16 04:21:35;;;;;;;;;;;;;;;-142.75;100.00;75670.81;5071255;28;20393;-66
2022/08/16 04:24:00;;;;;;;;;;;;;;;-142.75;100.00;75674.72;5072742;28;19912;-66
2022/08/16 04:26:26;;;;;;;;;;;;;;;-142.75;100.00;75680.63;5072552;28;19916;-65
2022/08/16 04:28:52;;;;;;;;;;;;;;;-142.75;100.00;75676.69;5072404;28;19963;-66
2022/08/16 04:31:17;;;;;;;;;;;;;;;-142.75;100.00;75674.72;5071343;28;19913;-66
2022/08/16 04:33:42;;;;;;;;;;;;;;;-142.75;100.00;75670.81;5072470;28;19939;-66
2022/08/16 04:36:10;;;;;;;;;;;;;;;-142.75;100.00;75668.84;5072322;28;19916;-66
2022/08/16 04:38:35;;;;;;;;;;;;;;;-142.75;100.00;75676.69;5072383;28;19951;-66
2022/08/16 04:41:01;;;;;;;;;;;;;;;-142.75;100.00;75672.78;5072357;28;19959;-66
2022/08/16 04:43:26;;;;;;;;;;;;;;;-142.75;100.00;75680.63;5072200;28;19919;-66
2022/08/16 04:45:51;;;;;;;;;;;;;;;-142.75;100.00;75680.63;5072167;28;19956;-66
2022/08/16 04:48:16;;;;;;;;;;;;;;;-142.75;100.00;75678.66;5070453;28;19962;-66
2022/08/16 04:50:42;;;;;;;;;;;;;;;-142.75;100.00;75680.63;5072124;28;20003;-66
2022/08/16 04:53:07;;;;;;;;;;;;;;;-142.75;100.00;75672.78;5071982;28;19986;-66
2022/08/16 04:55:32;;;;;;;;;;;;;;;-142.75;100.00;75684.56;5070994;28;19974;-66
2022/08/16 04:57:58;;;;;;;;;;;;;;;-142.75;100.00;75688.50;5071718;28;19916;-66
2022/08/16 05:00:26;;;;;;;;;;;;;;;-142.75;100.00;75684.56;5071950;28;20362;-66
2022/08/16 05:02:52;;;;;;;;;;;;;;;-142.75;100.00;75682.59;5072385;28;19997;-66
2022/08/16 05:05:17;;;;;;;;;;;;;;;-142.75;100.00;75690.47;5070486;28;20011;-66
2022/08/16 05:07:43;;;;;;;;;;;;;;;-142.75;100.00;75676.69;5071785;28;19971;-66
2022/08/16 05:10:09;;;;;;;;;;;;;;;-142.75;100.00;75680.63;5071790;28;19912;-66
2022/08/16 05:12:34;;;;;;;;;;;;;;;-142.75;100.00;75664.91;5071869;28;20004;-66
2022/08/16 05:14:59;;;;;;;;;;;;;;;-142.75;100.00;75651.13;5073780;28;20374;-66
2022/08/16 05:17:25;;;;;;;;;;;;;;;-142.75;100.00;75647.19;5075170;28;20306;-66
2022/08/16 05:19:50;;;;;;;;;;;;;;;-142.75;100.00;75637.34;5075501;28;20286;-66
2022/08/16 05:22:16;;;;;;;;;;;;;;;-142.75;100.00;75633.41;5075782;28;20441;-66
2022/08/16 05:24:41;;;;;;;;;;;;;;;-142.75;100.00;75619.63;5075504;28;19913;-66
2022/08/16 05:27:06;;;;;;;;;;;;;;;-142.75;100.00;75615.69;5074981;28;19928;-66
2022/08/16 05:29:31;;;;;;;;;;;;;;;-142.75;100.00;75611.75;5075371;28;20373;-66
2022/08/16 05:31:57;;;;;;;;;;;;;;;-142.75;100.00;75605.84;5075807;28;20370;-66
2022/08/16 05:34:23;;;;;;;;;;;;;;;-142.75;100.00;75590.13;5075210;28;20289;-66
2022/08/16 05:36:48;;;;;;;;;;;;;;;-142.75;100.00;75586.19;5075015;28;19916;-66
2022/08/16 05:39:13;;;;;;;;;;;;;;;-142.75;100.00;75572.41;5075250;28;20491;-66
2022/08/16 05:41:38;;;;;;;;;;;;;;;-142.75;100.00;75556.66;5075103;28;19913;-66
2022/08/16 05:44:04;;;;;;;;;;;;;;;-142.75;100.00;75550.75;5075213;28;19912;-66
2022/08/16 05:46:29;;;;;;;;;;;;;;;-142.75;100.00;75554.69;5074944;28;20370;-66
2022/08/16 05:48:54;;;;;;;;;;;;;;;-142.75;100.00;75546.81;5074909;28;19916;-66
2022/08/16 05:51:19;;;;;;;;;;;;;;;-142.75;100.00;75536.97;5075030;28;20401;-66
2022/08/16 05:53:44;;;;;;;;;;;;;;;-142.75;100.00;75527.13;5075490;28;19920;-66
2022/08/16 05:56:10;;;;;;;;;;;;;;;-142.75;100.00;75523.19;5074723;28;19917;-66
2022/08/16 05:58:35;;;;;;;;;;;;;;;-142.75;100.00;75515.31;5074659;28;19912;-66
2022/08/16 06:01:00;;;;;;;;;;;;;;;-142.75;100.00;75499.59;5074152;28;19913;-66
2022/08/16 06:03:26;;;;;;;;;;;;;;;-142.75;100.00;75489.75;5074243;28;19956;-66
2022/08/16 06:05:51;;;;;;;;;;;;;;;-142.75;100.00;75458.25;5091975;22;19940;-65
2022/08/16 06:08:16;;;;;;;;;;;;;;;-142.75;100.00;75468.09;5052279;28;19924;-65
2022/08/16 06:10:41;;;;;;;;;;;;;;;-142.75;100.00;75450.38;5052906;28;19917;-66
2022/08/16 06:13:07;;;;;;;;;;;;;;;-142.75;100.00;75436.59;5054017;28;19920;-66
2022/08/16 06:15:32;;;;;;;;;;;;;;;-142.75;100.00;75432.69;5053710;28;19913;-66
2022/08/16 06:17:58;;;;;;;;;;;;;;;-142.75;100.00;75426.78;5053435;28;20394;-66
2022/08/16 06:20:24;;;;;;;;;;;;;;;-142.75;100.00;75416.94;5053711;28;19913;-66
2022/08/16 06:22:55;;;;;;;;;;;;;;;-142.75;100.00;75409.06;5053777;28;19912;-66
2022/08/16 06:25:20;;;;;;;;;;;;;;;-142.75;100.00;75405.13;5053180;28;20444;-65
2022/08/16 06:27:46;;;;;;;;;;;;;;;-142.75;100.00;75403.16;5053372;28;19912;-66
2022/08/16 06:30:12;;;;;;;;;;;;;;;-142.75;100.00;75401.19;5035816;28;20374;-66
2022/08/16 06:32:37;;;;;;;;;;;;;;;-142.75;100.00;75389.38;5053477;28;19919;-66
2022/08/16 06:35:03;;;;;;;;;;;;;;;-142.75;100.00;75375.59;5035563;28;20370;-68
2022/08/16 06:37:29;;;;;;;;;;;;;;;-142.75;100.00;75363.78;5053437;28;19940;-68
2022/08/16 06:39:54;;;;;;;;;;;;;;;-142.75;100.00;75346.09;5053425;28;19939;-66
2022/08/16 06:42:19;;;;;;;;;;;;;;;-142.75;100.00;75332.31;5053472;28;19921;-66
2022/08/16 06:44:45;;;;;;;;;;;;;;;-142.75;100.00;75302.78;5053210;28;19920;-66
2022/08/16 06:47:11;;;;;;;;;;;;;;;-142.75;100.00;75273.28;5035076;28;20375;-66
2022/08/16 06:49:37;;;;;;;;;;;;;;;-142.75;100.00;75249.66;5053703;28;20394;-66
2022/08/16 06:52:02;;;;;;;;;;;;;;;-142.75;100.00;75220.16;5053815;28;19913;-66
2022/08/16 06:54:27;;;;;;;;;;;;;;;-142.75;100.00;75222.13;5053600;28;19913;-66
2022/08/16 06:56:53;;;;;;;;;;;;;;;-142.75;100.00;75210.31;5050874;28;19987;-66
2022/08/16 06:59:18;;;;;;;;;;;;;;;-142.75;100.00;75190.63;5051922;28;19916;-66
2022/08/16 07:01:43;;;;;;;;;;;;;;;-142.75;100.00;75198.50;5053342;28;19919;-66
2022/08/16 07:04:09;;;;;;;;;;;;;;;-142.75;100.00;75161.13;5035044;28;19917;-65
2022/08/16 07:06:34;;;;;;;;;;;;;;;-142.75;100.00;75129.63;5052534;28;20374;-67
2022/08/16 07:08:59;;;;;;;;;;;;;;;-142.75;100.00;75141.44;5052464;28;19916;-66
2022/08/16 07:11:25;;;;;;;;;;;;;;;-142.75;100.00;75133.56;5053371;28;19944;-66
2022/08/16 07:13:51;;;;;;;;;;;;;;;-142.75;100.00;75133.56;5053191;28;19916;-67
2022/08/16 07:16:16;;;;;;;;;;;;;;;-142.75;100.00;75129.63;5048901;28;19966;-66
2022/08/16 07:18:42;;;;;;;;;;;;;;;-142.75;100.00;75094.22;5052336;28;19916;-66
2022/08/16 07:21:08;;;;;;;;;;;;;;;-142.75;100.00;75088.31;5052235;28;19912;-65
2022/08/16 07:23:35;;;;;;;;;;;;;;;-142.75;100.00;75082.41;5052471;28;19913;-66
2022/08/16 07:26:00;;;;;;;;;;;;;;;-142.75;100.00;75050.91;5034620;28;19939;-66
2022/08/16 07:28:26;;;;;;;;;;;;;;;-142.75;100.00;75043.03;5052106;28;20378;-67
2022/08/16 07:30:51;;;;;;;;;;;;;;;-142.75;100.00;75035.19;5034352;28;19917;-66
2022/08/16 07:33:16;;;;;;;;;;;;;;;-142.75;100.00;75023.38;5052125;28;19919;-67
2022/08/16 07:35:42;;;;;;;;;;;;;;;-142.75;100.00;75045.00;5052125;28;19924;-67
2022/08/16 07:38:07;;;;;;;;;;;;;;;-142.75;100.00;75050.91;5051161;28;19990;-66
2022/08/16 07:40:33;;;;;;;;;;;;;;;-142.75;100.00;75039.13;5052148;28;19923;-67
2022/08/16 07:42:58;;;;;;;;;;;;;;;-142.75;100.00;75035.19;5052199;28;19913;-67
2022/08/16 07:45:24;;;;;;;;;;;;;;;-142.75;100.00;75043.03;5052376;28;19912;-66
2022/08/16 07:47:49;;;;;;;;;;;;;;;-142.75;100.00;75019.44;5052372;28;20396;-67
2022/08/16 07:50:15;;;;;;;;;;;;;;;-142.75;100.00;75003.69;5051415;28;20397;-66
2022/08/16 07:52:40;;;;;;;;;;;;;;;-142.75;100.00;74987.94;5052635;28;19923;-67
2022/08/16 07:55:07;;;;;;;;;;;;;;;-142.75;100.00;74985.97;5051231;28;19916;-67
2022/08/16 07:57:32;;;;;;;;;;;;;;;-142.75;100.00;74980.06;5051901;28;19924;-67
2022/08/16 07:59:58;;;;;;;;;;;;;;;-142.75;100.00;74987.94;5039543;28;19947;-67
2022/08/16 08:02:24;;;;;;;;;;;;;;;-142.75;100.00;74946.63;5052109;28;19921;-66
2022/08/16 08:04:49;;;;;;;;;;;;;;;-142.75;100.00;74968.28;5051822;28;19916;-66
2022/08/16 08:07:14;;;;;;;;;;;;;;;-142.75;100.00;74966.31;5050889;28;19924;-66
2022/08/16 08:09:40;;;;;;;;;;;;;;;-142.75;100.00;74956.47;5051857;28;19982;-66
2022/08/16 08:12:05;;;;;;;;;;;;;;;-142.75;100.00;74917.13;5067224;28;19920;-66
2022/08/16 08:14:31;;;;;;;;;;;;;;;-142.75;100.00;74909.25;5051715;28;19932;-66
2022/08/16 08:16:57;;;;;;;;;;;;;;;-142.75;100.00;74865.97;5050888;28;19924;-66
2022/08/16 08:19:23;;;;;;;;;;;;;;;-142.75;100.00;74867.91;5051049;28;19924;-66
2022/08/16 08:21:48;;;;;;;;;;;;;;;-142.75;100.00;74903.34;5051486;28;19925;-66
2022/08/16 08:24:14;;;;;;;;;;;;;;;-142.75;100.00;74873.81;5033777;28;20015;-67
2022/08/16 08:26:40;;;;;;;;;;;;;;;-142.75;100.00;74828.56;5051243;28;20003;-65
2022/08/16 08:29:06;;;;;;;;;;;;;;;-142.75;100.00;74816.75;5033779;28;19912;-67
2022/08/16 08:31:31;;;;;;;;;;;;;;;-142.75;100.00;74799.06;5051517;28;19998;-67
2022/08/16 08:33:59;;;;;;;;;;;;;;;-142.75;100.00;74785.28;5051962;28;19919;-67
2022/08/16 08:36:26;;;;;;;;;;;;;;;-142.75;100.00;74783.31;5052054;28;20003;-67
2022/08/16 08:38:52;;;;;;;;;;;;;;;-142.75;100.00;74773.47;5051969;28;19913;-65
2022/08/16 08:41:17;;;;;;;;;;;;;;;-142.75;100.00;74753.81;5052055;28;20003;-66
2022/08/16 08:43:42;;;;;;;;;;;;;;;-142.75;100.00;74706.59;5051946;28;19920;-67
2022/08/16 08:46:08;;;;;;;;;;;;;;;-142.75;100.00;74696.75;5051442;28;19916;-66
2022/08/16 08:48:35;;;;;;;;;;;;;;;-142.75;100.00;74665.25;5052582;28;19989;-66
2022/08/16 08:51:00;;;;;;;;;;;;;;;-142.75;100.00;74681.00;5071512;28;19912;-67
2022/08/16 08:53:26;;;;;;;;;;;;;;;-142.75;100.00;74757.75;5055929;28;20271;-66
2022/08/16 08:55:51;;;;;;;;;;;;;;;-142.75;100.00;74771.50;5071207;28;19924;-66
2022/08/16 08:58:16;;;;;;;;;;;;;;;-142.75;100.00;74804.97;5037596;28;19913;-67
2022/08/16 09:00:42;;;;;;;;;;;;;;;-142.75;100.00;74767.56;5055795;28;19974;-66
2022/08/16 09:03:07;;;;;;;;;;;;;;;-142.75;100.00;74704.63;5055746;28;19919;-66
2022/08/16 09:05:32;;;;;;;;;;;;;;;-142.75;100.00;74688.88;5055647;28;19912;-67
2022/08/16 09:07:57;;;;;;;;;;;;;;;-142.75;100.00;74679.03;5055447;28;20367;-66
2022/08/16 09:10:23;;;;;;;;;;;;;;;-142.75;100.00;74620.00;5055725;28;19958;-66
2022/08/16 09:12:48;;;;;;;;;;;;;;;-142.75;100.00;74621.97;5055568;28;19935;-66
2022/08/16 09:15:14;;;;;;;;;;;;;;;-142.75;100.00;74608.19;5055533;28;20012;-66
2022/08/16 09:17:40;;;;;;;;;;;;;;;-142.75;100.00;74608.19;5055052;28;19920;-67
2022/08/16 09:20:06;;;;;;;;;;;;;;;-142.75;100.00;74625.91;5055490;28;19959;-66
2022/08/16 09:22:32;;;;;;;;;;;;;;;-142.75;100.00;74627.88;5070790;28;19912;-66
2022/08/16 09:24:57;;;;;;;;;;;;;;;-142.75;100.00;74616.06;5055339;28;20401;-66
2022/08/16 09:27:23;;;;;;;;;;;;;;;-142.75;100.00;74582.63;5054923;28;19924;-66
2022/08/16 09:29:48;;;;;;;;;;;;;;;-142.75;100.00;74564.91;5055254;28;19960;-67
2022/08/16 09:32:13;;;;;;;;;;;;;;;-142.75;100.00;74539.34;5037276;28;19914;-66
2022/08/16 09:34:38;;;;;;;;;;;;;;;-142.75;100.00;74533.44;5055145;28;20293;-67
2022/08/16 09:37:03;;;;;;;;;;;;;;;-142.75;100.00;74511.78;5036860;28;20386;-66
2022/08/16 09:39:29;;;;;;;;;;;;;;;-142.75;100.00;74501.97;5055112;28;20456;-67
2022/08/16 09:41:57;;;;;;;;;;;;;;;-142.75;100.00;74486.22;5055049;28;20015;-66
2022/08/16 09:44:26;;;;;;;;;;;;;;;-142.75;100.00;74462.59;5055086;28;19970;-67
2022/08/16 09:46:52;;;;;;;;;;;;;;;-142.75;100.00;74507.88;5069922;28;20301;-67
2022/08/16 09:49:18;;;;;;;;;;;;;;;-142.75;100.00;74456.72;5054909;28;20003;-67
2022/08/16 09:51:44;;;;;;;;;;;;;;;-142.75;100.00;74440.97;5054859;28;20008;-67
2022/08/16 09:54:09;;;;;;;;;;;;;;;-142.75;100.00;74464.56;5054885;28;19913;-67
2022/08/16 09:56:35;;;;;;;;;;;;;;;-142.75;100.00;74511.78;5054319;28;19920;-65
2022/08/16 09:59:02;;;;;;;;;;;;;;;-142.75;100.00;74437.03;5054687;28;19912;-66
2022/08/16 10:01:30;;;;;;;;;;;;;;;-142.75;100.00;74460.63;5053875;28;20587;-66
2022/08/16 10:03:56;;;;;;;;;;;;;;;-142.75;100.00;74462.59;5054779;28;20401;-67
2022/08/16 10:06:22;;;;;;;;;;;;;;;-142.75;100.00;74488.19;5054394;28;19917;-66
2022/08/16 10:08:47;;;;;;;;;;;;;;;-142.75;100.00;74515.72;5036497;28;19920;-67
2022/08/16 10:13:56;;;;;;;;;;;;;;;-142.75;100.00;74446.88;5054901;28;19920;-66
2022/08/16 10:16:22;;;;;;;;;;;;;;;-142.75;100.00;74448.84;5036309;28;20015;-66
2022/08/16 10:18:47;;;;;;;;;;;;;;;-142.75;99.67;74437.03;5054165;28;19963;-67
2022/08/16 10:21:14;;;;;;;;;;;;;;;-142.75;97.84;74385.88;5054371;28;19919;-66
2022/08/16 10:23:40;;;;;;;;;;;;;;;-142.75;90.40;74411.47;5054256;28;19913;-67
2022/08/16 10:26:05;;;;;;;;;;;;;;;-142.75;93.44;74446.88;5054014;28;20019;-66
2022/08/16 10:28:30;;;;;;;;;;;;;;;-142.75;100.00;74429.16;5053906;28;20007;-66
2022/08/16 10:30:56;;;;;;;;;;;;;;;-142.75;100.00;74440.97;5054177;28;19917;-66
2022/08/16 10:33:22;;;;;;;;;;;;;;;-142.75;100.00;74448.84;5054154;28;19913;-66
2022/08/16 10:35:47;;;;;;;;;;;;;;;-142.75;100.00;74474.41;5053959;28;19959;-66
2022/08/16 10:38:12;;;;;;;;;;;;;;;-142.75;100.00;74490.16;5053819;28;19959;-66
2022/08/16 10:40:39;;;;;;;;;;;;;;;-142.75;99.95;74529.50;5053643;28;19916;-66
2022/08/16 10:43:04;;;;;;;;;;;;;;;-142.75;100.00;74557.03;5053933;28;20400;-66
2022/08/16 10:45:30;;;;;;;;;;;;;;;-142.75;100.00;74600.34;5053791;28;19916;-67
2022/08/16 10:47:56;;;;;;;;;;;;;;;-142.75;100.00;74600.34;5053464;28;20294;-67
2022/08/16 10:50:21;;;;;;;;;;;;;;;-142.75;100.00;74627.88;5053837;28;20641;-67
2022/08/16 10:52:46;;;;;;;;;;;;;;;-142.75;100.00;74645.59;5053800;28;20279;-67
2022/08/16 10:55:11;;;;;;;;;;;;;;;-142.75;100.00;74621.97;5053598;28;19913;-67
2022/08/16 10:57:37;;;;;;;;;;;;;;;-142.75;100.00;74604.28;5053247;28;19916;-67
2022/08/16 11:00:07;;;;;;;;;;;;;;;-142.75;100.00;74578.69;5053637;28;19913;-66
2022/08/16 11:02:32;;;;;;;;;;;;;;;-142.75;100.00;74545.25;5053580;28;19913;-67
2022/08/16 11:04:58;;;;;;;;;;;;;;;-142.75;99.69;74529.50;5053480;28;20556;-66
2022/08/16 11:07:23;;;;;;;;;;;;;;;-142.75;94.22;74460.63;5052987;28;20308;-67
2022/08/16 11:09:49;;;;;;;;;;;;;;;-142.75;93.92;74440.97;5053268;28;20051;-67
2022/08/16 11:12:14;;;;;;;;;;;;;;;-142.75;87.12;74433.09;5053422;28;19952;-67
2022/08/16 11:14:39;;;;;;;;;;;;;;;-142.75;89.45;74421.28;5053318;28;19913;-67
2022/08/16 11:17:05;;;;;;;;;;;;;;;-142.75;91.21;74397.69;5052761;28;19932;-67
2022/08/16 11:19:30;;;;;;;;;;;;;;;-142.75;85.34;74342.59;5053244;28;20405;-67
2022/08/16 11:21:56;;;;;;;;;;;;;;;-142.75;81.15;74342.59;5053253;28;19920;-67
2022/08/16 11:24:21;;;;;;;;;;;;;;;-142.75;74.90;74315.06;5053058;28;20345;-67
2022/08/16 11:26:47;;;;;;;;;;;;;;;-142.75;74.15;74287.50;5052815;28;19919;-67
2022/08/16 11:29:12;;;;;;;;;;;;;;;-142.75;77.69;74297.34;5035203;28;19913;-68
2022/08/16 11:31:37;;;;;;;;;;;;;;;-142.75;77.22;74326.84;5068587;28;20436;-67
2022/08/16 11:34:02;;;;;;;;;;;;;;;-142.75;78.86;74287.50;5053081;28;19917;-68
2022/08/16 11:36:28;;;;;;;;;;;;;;;-142.75;79.82;74271.78;5052758;28;19982;-66
2022/08/16 11:38:53;;;;;;;;;;;;;;;-142.75;79.81;74246.19;5052828;28;19912;-67
2022/08/16 11:41:18;;;;;;;;;;;;;;;-142.75;74.68;74263.91;5053069;28;19913;-68
2022/08/16 11:43:45;;;;;;;;;;;;;;;-142.75;73.61;74244.22;5052876;28;19912;-68
2022/08/16 11:46:12;;;;;;;;;;;;;;;-142.75;77.54;74236.34;5034830;28;20011;-68
2022/08/16 11:48:38;;;;;;;;;;;;;;;-142.75;75.41;74222.59;5052524;28;20382;-68
2022/08/16 11:51:03;;;;;;;;;;;;;;;-142.75;75.82;74269.81;5068146;28;19943;-67
2022/08/16 11:53:29;;;;;;;;;;;;;;;-142.75;81.46;74411.47;5052656;28;20378;-68
2022/08/16 11:55:55;;;;;;;;;;;;;;;-142.75;82.27;74456.72;5067852;28;19916;-67
2022/08/16 11:58:21;;;;;;;;;;;;;;;-142.75;87.48;74468.50;5034501;28;20378;-68
2022/08/16 12:00:47;;;;;;;;;;;;;;;-142.75;88.15;74454.75;5034762;28;19919;-67
2022/08/16 12:03:12;;;;;;;;;;;;;;;-142.75;85.66;74446.88;5052516;28;19912;-67
2022/08/16 12:08:21;;;;;;;;;;;;;;;-142.75;82.75;74503.94;5027823;28;20294;-65
2022/08/16 12:10:47;;;;;;;;;;;;;;;-142.75;85.29;74527.53;5031396;28;19999;-67
2022/08/16 12:13:12;;;;;;;;;;;;;;;-142.75;86.31;74562.94;5031147;28;20019;-65
2022/08/16 12:15:38;;;;;;;;;;;;;;;-142.75;92.41;74570.81;5032281;28;20004;-67